sensor_id;sensor_type;location;lat;lon;timestamp;P1;durP1;ratioP1;P2;durP2;ratioP2
31087;SDS011;17745;55.914;37.554;2022-09-09T00:00:25;4.40;;;3.03;;
31087;SDS011;17745;55.914;37.554;2022-09-09T00:03:00;4.50;;;2.90;;
31087;SDS011;17745;55.914;37.554;2022-09-09T00:05:38;6.93;;;4.07;;
31087;SDS011;17745;55.914;37.554;2022-09-09T00:08:13;6.40;;;3.53;;
31087;SDS011;17745;55.914;37.554;2022-09-09T00:10:47;9.40;;;3.75;;
31087;SDS011;17745;55.914;37.554;2022-09-09T00:13:20;2.95;;;2.22;;
31087;SDS011;17745;55.914;37.554;2022-09-09T00:15:59;9.68;;;3.25;;
31087;SDS011;17745;55.914;37.554;2022-09-09T00:18:44;7.05;;;3.37;;
31087;SDS011;17745;55.914;37.554;2022-09-09T00:21:19;5.30;;;2.97;;
31087;SDS011;17745;55.914;37.554;2022-09-09T00:23:56;7.50;;;3.30;;
31087;SDS011;17745;55.914;37.554;2022-09-09T00:26:29;4.95;;;2.95;;
31087;SDS011;17745;55.914;37.554;2022-09-09T00:29:03;5.60;;;3.20;;
31087;SDS011;17745;55.914;37.554;2022-09-09T00:31:40;8.85;;;3.20;;
31087;SDS011;17745;55.914;37.554;2022-09-09T00:34:11;7.78;;;4.55;;
31087;SDS011;17745;55.914;37.554;2022-09-09T00:36:42;6.32;;;3.12;;
31087;SDS011;17745;55.914;37.554;2022-09-09T00:39:15;4.62;;;2.60;;
31087;SDS011;17745;55.914;37.554;2022-09-09T00:41:50;8.40;;;3.70;;
31087;SDS011;17745;55.914;37.554;2022-09-09T00:44:34;3.10;;;2.22;;
31087;SDS011;17745;55.914;37.554;2022-09-09T00:47:11;4.15;;;2.78;;
31087;SDS011;17745;55.914;37.554;2022-09-09T00:49:54;8.13;;;3.83;;
31087;SDS011;17745;55.914;37.554;2022-09-09T00:52:32;4.35;;;2.53;;
31087;SDS011;17745;55.914;37.554;2022-09-09T00:55:09;5.10;;;2.72;;
31087;SDS011;17745;55.914;37.554;2022-09-09T00:57:44;7.80;;;3.62;;
31087;SDS011;17745;55.914;37.554;2022-09-09T01:00:21;2.58;;;1.92;;
31087;SDS011;17745;55.914;37.554;2022-09-09T01:02:56;2.47;;;1.92;;
31087;SDS011;17745;55.914;37.554;2022-09-09T01:05:48;8.93;;;3.90;;
31087;SDS011;17745;55.914;37.554;2022-09-09T01:08:27;4.55;;;3.12;;
31087;SDS011;17745;55.914;37.554;2022-09-09T01:11:12;4.72;;;2.85;;
31087;SDS011;17745;55.914;37.554;2022-09-09T01:13:49;6.15;;;2.50;;
31087;SDS011;17745;55.914;37.554;2022-09-09T01:16:25;5.40;;;2.95;;
31087;SDS011;17745;55.914;37.554;2022-09-09T01:18:56;6.12;;;3.60;;
31087;SDS011;17745;55.914;37.554;2022-09-09T01:21:35;6.80;;;3.60;;
31087;SDS011;17745;55.914;37.554;2022-09-09T01:24:17;6.50;;;3.33;;
31087;SDS011;17745;55.914;37.554;2022-09-09T01:29:51;4.12;;;2.75;;
31087;SDS011;17745;55.914;37.554;2022-09-09T01:32:37;5.90;;;3.37;;
31087;SDS011;17745;55.914;37.554;2022-09-09T01:35:24;10.07;;;3.12;;
31087;SDS011;17745;55.914;37.554;2022-09-09T01:40:46;4.45;;;3.30;;
31087;SDS011;17745;55.914;37.554;2022-09-09T01:47:06;4.47;;;2.80;;
31087;SDS011;17745;55.914;37.554;2022-09-09T01:49:37;6.93;;;3.50;;
31087;SDS011;17745;55.914;37.554;2022-09-09T01:52:07;5.82;;;3.30;;
31087;SDS011;17745;55.914;37.554;2022-09-09T01:54:35;4.78;;;3.12;;
31087;SDS011;17745;55.914;37.554;2022-09-09T01:57:06;3.97;;;2.45;;
31087;SDS011;17745;55.914;37.554;2022-09-09T01:59:47;5.28;;;2.47;;
31087;SDS011;17745;55.914;37.554;2022-09-09T02:05:22;8.73;;;3.28;;
31087;SDS011;17745;55.914;37.554;2022-09-09T02:08:03;4.32;;;2.37;;
31087;SDS011;17745;55.914;37.554;2022-09-09T02:10:40;5.05;;;3.37;;
31087;SDS011;17745;55.914;37.554;2022-09-09T02:13:15;5.30;;;3.55;;
31087;SDS011;17745;55.914;37.554;2022-09-09T02:15:49;5.35;;;3.05;;
31087;SDS011;17745;55.914;37.554;2022-09-09T02:18:25;5.87;;;3.33;;
31087;SDS011;17745;55.914;37.554;2022-09-09T02:21:00;4.18;;;2.80;;
31087;SDS011;17745;55.914;37.554;2022-09-09T02:23:30;5.50;;;3.47;;
31087;SDS011;17745;55.914;37.554;2022-09-09T02:26:18;6.35;;;3.47;;
31087;SDS011;17745;55.914;37.554;2022-09-09T02:29:07;5.30;;;3.28;;
31087;SDS011;17745;55.914;37.554;2022-09-09T02:31:42;4.53;;;3.22;;
31087;SDS011;17745;55.914;37.554;2022-09-09T02:34:22;4.68;;;3.03;;
31087;SDS011;17745;55.914;37.554;2022-09-09T02:36:54;4.80;;;3.20;;
31087;SDS011;17745;55.914;37.554;2022-09-09T02:39:43;5.20;;;3.20;;
31087;SDS011;17745;55.914;37.554;2022-09-09T02:42:14;6.12;;;3.10;;
31087;SDS011;17745;55.914;37.554;2022-09-09T02:44:42;4.43;;;2.65;;
31087;SDS011;17745;55.914;37.554;2022-09-09T02:47:16;4.82;;;3.20;;
31087;SDS011;17745;55.914;37.554;2022-09-09T02:53:17;5.65;;;2.45;;
31087;SDS011;17745;55.914;37.554;2022-09-09T02:55:50;5.43;;;3.30;;
31087;SDS011;17745;55.914;37.554;2022-09-09T02:58:34;6.62;;;3.10;;
31087;SDS011;17745;55.914;37.554;2022-09-09T03:03:47;4.82;;;2.97;;
31087;SDS011;17745;55.914;37.554;2022-09-09T03:09:45;5.10;;;2.70;;
31087;SDS011;17745;55.914;37.554;2022-09-09T03:12:30;4.65;;;2.85;;
31087;SDS011;17745;55.914;37.554;2022-09-09T03:15:42;4.72;;;2.87;;
31087;SDS011;17745;55.914;37.554;2022-09-09T03:18:43;4.47;;;2.75;;
31087;SDS011;17745;55.914;37.554;2022-09-09T03:45:39;3.70;;;2.40;;
31087;SDS011;17745;55.914;37.554;2022-09-09T03:54:42;4.40;;;3.22;;
31087;SDS011;17745;55.914;37.554;2022-09-09T03:58:19;3.30;;;2.25;;
31087;SDS011;17745;55.914;37.554;2022-09-09T06:40:36;3.70;;;2.15;;
31087;SDS011;17745;55.914;37.554;2022-09-09T06:43:29;3.80;;;1.85;;
31087;SDS011;17745;55.914;37.554;2022-09-09T06:46:02;3.60;;;2.10;;
31087;SDS011;17745;55.914;37.554;2022-09-09T06:48:50;3.65;;;1.70;;
31087;SDS011;17745;55.914;37.554;2022-09-09T06:51:23;3.40;;;1.90;;
31087;SDS011;17745;55.914;37.554;2022-09-09T06:54:03;2.45;;;1.65;;
31087;SDS011;17745;55.914;37.554;2022-09-09T06:59:26;1.70;;;1.33;;
31087;SDS011;17745;55.914;37.554;2022-09-09T07:02:22;2.67;;;1.80;;
31087;SDS011;17745;55.914;37.554;2022-09-09T07:04:58;1.80;;;1.30;;
31087;SDS011;17745;55.914;37.554;2022-09-09T07:10:44;3.47;;;2.00;;
31087;SDS011;17745;55.914;37.554;2022-09-09T07:16:44;2.08;;;1.50;;
31087;SDS011;17745;55.914;37.554;2022-09-09T07:19:14;1.58;;;1.40;;
31087;SDS011;17745;55.914;37.554;2022-09-09T07:21:43;3.08;;;1.30;;
31087;SDS011;17745;55.914;37.554;2022-09-09T07:24:11;3.08;;;1.23;;
31087;SDS011;17745;55.914;37.554;2022-09-09T07:26:55;3.10;;;1.30;;
31087;SDS011;17745;55.914;37.554;2022-09-09T07:32:37;1.83;;;1.35;;
31087;SDS011;17745;55.914;37.554;2022-09-09T07:35:21;3.47;;;1.48;;
31087;SDS011;17745;55.914;37.554;2022-09-09T07:38:00;1.37;;;1.20;;
31087;SDS011;17745;55.914;37.554;2022-09-09T07:40:37;1.33;;;1.20;;
31087;SDS011;17745;55.914;37.554;2022-09-09T07:43:11;2.53;;;1.45;;
31087;SDS011;17745;55.914;37.554;2022-09-09T07:45:46;1.35;;;1.25;;
31087;SDS011;17745;55.914;37.554;2022-09-09T07:51:03;3.50;;;1.50;;
31087;SDS011;17745;55.914;37.554;2022-09-09T07:53:40;2.70;;;1.45;;
31087;SDS011;17745;55.914;37.554;2022-09-09T07:56:12;4.70;;;1.50;;
31087;SDS011;17745;55.914;37.554;2022-09-09T07:59:08;1.90;;;1.27;;
31087;SDS011;17745;55.914;37.554;2022-09-09T08:01:42;1.85;;;1.30;;
31087;SDS011;17745;55.914;37.554;2022-09-09T08:04:13;1.80;;;1.27;;
31087;SDS011;17745;55.914;37.554;2022-09-09T08:06:44;1.77;;;1.40;;
31087;SDS011;17745;55.914;37.554;2022-09-09T08:09:15;1.45;;;1.30;;
31087;SDS011;17745;55.914;37.554;2022-09-09T08:11:51;2.47;;;1.42;;
31087;SDS011;17745;55.914;37.554;2022-09-09T08:14:27;1.77;;;1.37;;
31087;SDS011;17745;55.914;37.554;2022-09-09T08:16:57;1.83;;;1.43;;
31087;SDS011;17745;55.914;37.554;2022-09-09T08:19:41;2.87;;;1.30;;
31087;SDS011;17745;55.914;37.554;2022-09-09T08:22:14;2.15;;;1.30;;
31087;SDS011;17745;55.914;37.554;2022-09-09T08:24:48;1.67;;;1.40;;
31087;SDS011;17745;55.914;37.554;2022-09-09T08:27:17;1.67;;;1.20;;
31087;SDS011;17745;55.914;37.554;2022-09-09T08:29:47;2.78;;;1.40;;
31087;SDS011;17745;55.914;37.554;2022-09-09T08:32:16;1.20;;;1.10;;
31087;SDS011;17745;55.914;37.554;2022-09-09T08:35:21;1.75;;;1.30;;
31087;SDS011;17745;55.914;37.554;2022-09-09T08:42:26;1.62;;;1.27;;
31087;SDS011;17745;55.914;37.554;2022-09-09T08:50:26;1.00;;;0.90;;
31087;SDS011;17745;55.914;37.554;2022-09-09T08:53:47;1.70;;;1.30;;
31087;SDS011;17745;55.914;37.554;2022-09-09T09:05:00;1.95;;;1.20;;
31087;SDS011;17745;55.914;37.554;2022-09-09T09:11:08;5.97;;;1.40;;
31087;SDS011;17745;55.914;37.554;2022-09-09T09:13:38;2.37;;;1.25;;
31087;SDS011;17745;55.914;37.554;2022-09-09T09:16:13;2.00;;;1.42;;
31087;SDS011;17745;55.914;37.554;2022-09-09T09:18:50;3.17;;;1.40;;
31087;SDS011;17745;55.914;37.554;2022-09-09T09:21:25;1.90;;;1.20;;
31087;SDS011;17745;55.914;37.554;2022-09-09T09:24:02;1.48;;;1.20;;
31087;SDS011;17745;55.914;37.554;2022-09-09T09:27:25;2.95;;;1.10;;
31087;SDS011;17745;55.914;37.554;2022-09-09T09:30:10;1.17;;;1.08;;
31087;SDS011;17745;55.914;37.554;2022-09-09T09:32:47;1.60;;;1.02;;
31087;SDS011;17745;55.914;37.554;2022-09-09T09:35:21;4.20;;;1.17;;
31087;SDS011;17745;55.914;37.554;2022-09-09T09:37:51;3.08;;;1.10;;
31087;SDS011;17745;55.914;37.554;2022-09-09T09:40:21;1.95;;;1.10;;
31087;SDS011;17745;55.914;37.554;2022-09-09T09:42:55;1.35;;;1.02;;
31087;SDS011;17745;55.914;37.554;2022-09-09T09:45:29;1.08;;;0.98;;
31087;SDS011;17745;55.914;37.554;2022-09-09T09:48:03;0.90;;;0.90;;
31087;SDS011;17745;55.914;37.554;2022-09-09T09:50:33;2.17;;;1.20;;
31087;SDS011;17745;55.914;37.554;2022-09-09T09:53:03;1.08;;;1.00;;
31087;SDS011;17745;55.914;37.554;2022-09-09T09:55:35;1.95;;;1.20;;
31087;SDS011;17745;55.914;37.554;2022-09-09T09:58:06;1.35;;;1.10;;
31087;SDS011;17745;55.914;37.554;2022-09-09T10:00:47;1.42;;;1.10;;
31087;SDS011;17745;55.914;37.554;2022-09-09T10:03:21;4.37;;;1.30;;
31087;SDS011;17745;55.914;37.554;2022-09-09T10:05:53;1.12;;;1.02;;
31087;SDS011;17745;55.914;37.554;2022-09-09T10:08:22;3.03;;;1.50;;
31087;SDS011;17745;55.914;37.554;2022-09-09T10:13:53;1.70;;;1.20;;
31087;SDS011;17745;55.914;37.554;2022-09-09T10:16:37;1.60;;;1.20;;
31087;SDS011;17745;55.914;37.554;2022-09-09T10:19:15;3.47;;;1.17;;
31087;SDS011;17745;55.914;37.554;2022-09-09T10:21:52;3.50;;;1.20;;
31087;SDS011;17745;55.914;37.554;2022-09-09T10:27:55;1.25;;;1.12;;
31087;SDS011;17745;55.914;37.554;2022-09-09T10:31:22;2.95;;;1.35;;
31087;SDS011;17745;55.914;37.554;2022-09-09T10:34:39;3.17;;;1.33;;
31087;SDS011;17745;55.914;37.554;2022-09-09T10:37:29;1.98;;;1.12;;
31087;SDS011;17745;55.914;37.554;2022-09-09T10:40:30;2.03;;;1.20;;
31087;SDS011;17745;55.914;37.554;2022-09-09T10:43:10;2.55;;;1.60;;
31087;SDS011;17745;55.914;37.554;2022-09-09T10:45:48;2.33;;;1.30;;
31087;SDS011;17745;55.914;37.554;2022-09-09T10:59:08;2.67;;;1.60;;
31087;SDS011;17745;55.914;37.554;2022-09-09T11:01:42;2.50;;;1.45;;
31087;SDS011;17745;55.914;37.554;2022-09-09T11:04:31;3.85;;;1.50;;
31087;SDS011;17745;55.914;37.554;2022-09-09T11:07:40;3.85;;;1.90;;
31087;SDS011;17745;55.914;37.554;2022-09-09T11:13:49;6.40;;;2.05;;
31087;SDS011;17745;55.914;37.554;2022-09-09T11:16:27;3.75;;;1.50;;
31087;SDS011;17745;55.914;37.554;2022-09-09T11:19:14;2.55;;;1.40;;
31087;SDS011;17745;55.914;37.554;2022-09-09T11:21:49;2.45;;;1.40;;
31087;SDS011;17745;55.914;37.554;2022-09-09T11:24:36;2.12;;;1.42;;
31087;SDS011;17745;55.914;37.554;2022-09-09T11:28:14;2.50;;;1.35;;
31087;SDS011;17745;55.914;37.554;2022-09-09T11:31:15;3.15;;;1.60;;
31087;SDS011;17745;55.914;37.554;2022-09-09T11:47:50;2.80;;;1.70;;
31087;SDS011;17745;55.914;37.554;2022-09-09T11:50:30;3.17;;;1.60;;
31087;SDS011;17745;55.914;37.554;2022-09-09T11:53:05;2.78;;;1.50;;
31087;SDS011;17745;55.914;37.554;2022-09-09T11:58:43;1.23;;;1.00;;
31087;SDS011;17745;55.914;37.554;2022-09-09T12:01:27;1.92;;;1.30;;
31087;SDS011;17745;55.914;37.554;2022-09-09T12:07:21;2.40;;;1.33;;
31087;SDS011;17745;55.914;37.554;2022-09-09T12:10:22;4.53;;;1.37;;
31087;SDS011;17745;55.914;37.554;2022-09-09T12:13:24;4.25;;;1.40;;
31087;SDS011;17745;55.914;37.554;2022-09-09T12:16:27;4.57;;;2.00;;
31087;SDS011;17745;55.914;37.554;2022-09-09T12:19:03;4.22;;;1.60;;
31087;SDS011;17745;55.914;37.554;2022-09-09T12:21:57;2.72;;;1.15;;
31087;SDS011;17745;55.914;37.554;2022-09-09T12:24:37;3.03;;;1.23;;
31087;SDS011;17745;55.914;37.554;2022-09-09T12:27:30;3.00;;;1.50;;
31087;SDS011;17745;55.914;37.554;2022-09-09T12:30:19;2.22;;;1.40;;
31087;SDS011;17745;55.914;37.554;2022-09-09T12:33:09;4.90;;;1.60;;
31087;SDS011;17745;55.914;37.554;2022-09-09T12:35:40;1.75;;;1.20;;
31087;SDS011;17745;55.914;37.554;2022-09-09T12:38:13;2.22;;;1.33;;
31087;SDS011;17745;55.914;37.554;2022-09-09T12:40:53;2.95;;;1.60;;
31087;SDS011;17745;55.914;37.554;2022-09-09T12:43:23;1.87;;;1.42;;
31087;SDS011;17745;55.914;37.554;2022-09-09T12:45:55;6.62;;;1.55;;
31087;SDS011;17745;55.914;37.554;2022-09-09T12:48:31;2.05;;;1.25;;
31087;SDS011;17745;55.914;37.554;2022-09-09T12:51:04;3.33;;;1.65;;
31087;SDS011;17745;55.914;37.554;2022-09-09T12:54:12;1.10;;;0.98;;
31087;SDS011;17745;55.914;37.554;2022-09-09T12:56:45;1.65;;;1.12;;
31087;SDS011;17745;55.914;37.554;2022-09-09T12:59:23;2.00;;;1.20;;
31087;SDS011;17745;55.914;37.554;2022-09-09T13:12:18;2.20;;;1.20;;
31087;SDS011;17745;55.914;37.554;2022-09-09T13:14:48;3.87;;;1.40;;
31087;SDS011;17745;55.914;37.554;2022-09-09T13:20:33;3.28;;;1.27;;
